Terminal Aerodrome Forecast
Issued by NWS

Home | Current Version | Previous Version | Graphics & Text | Print | Product List | Glossary On
Versions: 1 2 3 4 5 6 7 8 9 10 11 12 13 14 15 16
000
FTUS43 KMPX 041723
TAFAXN
TAF
KAXN 041723Z 0418/0518 31015G22KT P6SM SCT030
      TEMPO 0418/0419 BKN030
     FM050100 30007KT P6SM SKC
     FM050700 27004KT P6SM SKC
     FM051300 20009KT P6SM SKC=

USA.gov is the U.S. government's official web portal to all federal, state and local government web resources and services.